Time;durP1;ratioP1;P1;durP2;ratioP2;P2;SDS_P1;SDS_P2;PMS_P1;PMS_P2;Temp;Humidity;BMP_temperature;BMP_pressure;BME280_temperature;BME280_humidity;BME280_pressure;Samples;Min_cycle;Max_cycle;Signal;HPM_P1;HPM_P2
2022/08/25 00:01:44;;;;;;;4.33;2.90;;;23.10;53.10;;;;;;5086752;28;20477;-50
2022/08/25 00:04:15;;;;;;;4.63;3.20;;;23.00;53.70;;;;;;5085732;28;20504;-50
2022/08/25 00:06:44;;;;;;;3.57;3.37;;;23.00;53.70;;;;;;5069933;28;20521;-50
2022/08/25 00:09:14;;;;;;;3.90;3.40;;;22.90;53.50;;;;;;5085997;28;20476;-49
2022/08/25 00:11:42;;;;;;;3.50;3.20;;;22.90;53.80;;;;;;5068403;28;20495;-50
2022/08/25 00:14:12;;;;;;;6.10;3.60;;;22.90;54.00;;;;;;5084597;28;20487;-49
2022/08/25 00:16:39;;;;;;;3.87;3.07;;;22.90;53.80;;;;;;5064955;28;20467;-50
2022/08/25 00:19:12;;;;;;;3.80;3.50;;;22.90;53.80;;;;;;5081126;28;20457;-50
2022/08/25 00:21:41;;;;;;;3.50;3.20;;;22.80;53.90;;;;;;5081370;28;20460;-50
2022/08/25 00:24:09;;;;;;;3.40;3.10;;;22.80;53.80;;;;;;5085519;28;20476;-49
2022/08/25 00:26:42;;;;;;;4.43;2.97;;;22.80;53.90;;;;;;5086652;28;20488;-50
2022/08/25 00:29:10;;;;;;;3.03;2.77;;;22.80;53.60;;;;;;5086740;28;20471;-49
2022/08/25 00:31:38;;;;;;;3.70;2.90;;;22.80;53.70;;;;;;5084799;28;20490;-50
2022/08/25 00:34:07;;;;;;;6.30;3.30;;;22.80;53.90;;;;;;5065629;28;20467;-50
2022/08/25 00:36:35;;;;;;;5.90;3.87;;;22.80;54.10;;;;;;5081838;28;20906;-50
2022/08/25 00:39:02;;;;;;;3.63;3.33;;;22.70;54.10;;;;;;5065681;28;20487;-50
2022/08/25 00:41:29;;;;;;;3.53;3.10;;;22.70;54.20;;;;;;5082402;28;20491;-50
2022/08/25 00:43:59;;;;;;;3.83;3.53;;;22.60;54.40;;;;;;5083683;28;20460;-49
2022/08/25 00:46:31;;;;;;;5.03;3.50;;;22.60;54.70;;;;;;5068427;28;20475;-50
2022/08/25 00:49:08;;;;;;;4.83;3.07;;;22.60;55.00;;;;;;5067703;28;20464;-50
2022/08/25 00:51:46;;;;;;;2.77;2.57;;;22.60;55.10;;;;;;5066744;28;20996;-50
2022/08/25 00:54:17;;;;;;;3.43;2.93;;;22.60;55.00;;;;;;5067091;28;20455;-49
2022/08/25 00:56:44;;;;;;;3.40;3.13;;;22.50;55.10;;;;;;5080780;28;20471;-50
2022/08/25 00:59:13;;;;;;;4.37;3.10;;;22.50;54.90;;;;;;5081531;28;20470;-50
2022/08/25 01:01:40;;;;;;;3.43;3.10;;;22.50;54.70;;;;;;5066750;28;20472;-50
2022/08/25 01:04:07;;;;;;;5.80;3.30;;;22.50;54.80;;;;;;5062638;28;21082;-49
2022/08/25 01:06:38;;;;;;;4.17;2.97;;;22.50;55.00;;;;;;5082211;28;20534;-50
2022/08/25 01:09:06;;;;;;;3.50;3.20;;;22.50;55.20;;;;;;5081647;28;20460;-50
2022/08/25 01:11:34;;;;;;;4.60;3.40;;;22.50;55.30;;;;;;5085186;28;20492;-50
2022/08/25 01:14:05;;;;;;;3.90;3.60;;;22.50;55.50;;;;;;5080891;28;20463;-50
2022/08/25 01:16:35;;;;;;;3.60;2.97;;;22.40;55.70;;;;;;5065632;28;20461;-50
2022/08/25 01:19:03;;;;;;;4.63;2.83;;;22.40;55.90;;;;;;5085018;28;20463;-49
2022/08/25 01:21:38;;;;;;;3.17;2.80;;;22.40;56.20;;;;;;5067550;28;20486;-50
2022/08/25 01:24:05;;;;;;;3.73;3.03;;;22.40;56.40;;;;;;5074342;28;20821;-50
2022/08/25 01:26:34;;;;;;;4.43;4.00;;;22.40;56.50;;;;;;5080795;28;20456;-50
2022/08/25 01:31:56;;;;;;;4.00;3.70;;;22.40;55.50;;;;;;5083645;28;20507;-50
2022/08/25 01:34:26;;;;;;;4.17;3.63;;;22.40;55.50;;;;;;5081727;28;20457;-50
2022/08/25 01:36:54;;;;;;;5.37;3.70;;;22.40;55.30;;;;;;5082315;28;20465;-50
2022/08/25 01:39:22;;;;;;;5.13;3.07;;;22.30;55.90;;;;;;5059891;28;20465;-50
2022/08/25 01:42:26;;;;;;;3.70;3.30;;;22.30;55.90;;;;;;5067530;28;20824;-49
2022/08/25 01:44:53;;;;;;;3.60;3.30;;;22.30;56.10;;;;;;5085306;28;20705;-50
2022/08/25 01:47:20;;;;;;;4.60;3.60;;;22.30;55.90;;;;;;5080974;28;20464;-50
2022/08/25 01:49:47;;;;;;;3.73;3.43;;;22.30;55.50;;;;;;5082605;28;20467;-50
2022/08/25 01:52:22;;;;;;;3.50;2.73;;;22.20;55.50;;;;;;5082928;28;20573;-49
2022/08/25 01:54:49;;;;;;;3.30;3.00;;;22.20;55.50;;;;;;5049518;28;20517;-49
2022/08/25 01:57:16;;;;;;;5.53;3.10;;;22.10;55.70;;;;;;5081441;28;20480;-50
2022/08/25 01:59:43;;;;;;;4.03;3.50;;;22.10;56.00;;;;;;5082955;28;20455;-50
2022/08/25 02:02:10;;;;;;;6.33;3.40;;;22.00;56.40;;;;;;5066777;28;20460;-50
2022/08/25 02:04:38;;;;;;;3.23;2.93;;;22.00;56.30;;;;;;5081709;28;20458;-50
2022/08/25 02:07:08;;;;;;;4.43;3.20;;;22.00;56.40;;;;;;5080231;28;20508;-50
2022/08/25 02:09:36;;;;;;;5.57;3.97;;;22.10;56.30;;;;;;5083704;28;20460;-49
2022/08/25 02:12:03;;;;;;;3.67;3.37;;;22.10;55.80;;;;;;5088883;28;20484;-49
2022/08/25 02:14:30;;;;;;;3.13;2.83;;;22.10;55.80;;;;;;5088376;28;20476;-49
2022/08/25 02:16:57;;;;;;;4.30;3.40;;;22.10;55.60;;;;;;5089607;28;20475;-49
2022/08/25 02:19:25;;;;;;;3.87;3.47;;;22.00;55.80;;;;;;5083017;28;20866;-49
2022/08/25 02:21:52;;;;;;;3.73;3.43;;;22.00;55.70;;;;;;5088817;28;20998;-49
2022/08/25 02:24:19;;;;;;;3.10;2.80;;;22.00;55.80;;;;;;5082315;28;20460;-49
2022/08/25 02:26:46;;;;;;;3.10;2.90;;;22.00;55.60;;;;;;5070591;28;20715;-49
2022/08/25 02:29:13;;;;;;;4.17;3.77;;;22.00;56.00;;;;;;5068181;28;20459;-49
2022/08/25 02:31:40;;;;;;;4.37;4.03;;;21.90;56.30;;;;;;5085748;28;20491;-49
2022/08/25 02:34:08;;;;;;;4.30;3.47;;;21.90;56.50;;;;;;5072972;28;20460;-49
2022/08/25 02:36:37;;;;;;;3.87;3.20;;;21.80;56.80;;;;;;5067592;28;20907;-48
2022/08/25 02:39:06;;;;;;;3.57;3.17;;;21.70;57.00;;;;;;5064347;28;20479;-48
2022/08/25 02:41:33;;;;;;;3.03;2.77;;;21.60;57.30;;;;;;5083942;28;20456;-49
2022/08/25 02:44:02;;;;;;;4.63;3.70;;;21.60;57.40;;;;;;5082051;28;20453;-48
2022/08/25 02:46:29;;;;;;;3.90;3.50;;;21.60;57.90;;;;;;5082395;28;20460;-48
2022/08/25 02:48:57;;;;;;;4.10;3.20;;;21.50;58.00;;;;;;5082849;28;20471;-48
2022/08/25 02:51:27;;;;;;;7.83;3.20;;;21.50;58.20;;;;;;5081232;28;20480;-48
2022/08/25 02:53:55;;;;;;;6.07;3.83;;;21.40;58.50;;;;;;5081089;28;20479;-48
2022/08/25 02:56:23;;;;;;;8.50;3.87;;;21.50;58.20;;;;;;5063435;28;20453;-48
2022/08/25 02:58:50;;;;;;;4.17;3.77;;;21.50;58.30;;;;;;5080652;28;20889;-48
2022/08/25 03:01:16;;;;;;;3.50;3.20;;;21.50;58.50;;;;;;5063872;28;20460;-48
2022/08/25 03:03:46;;;;;;;4.13;3.73;;;21.50;58.70;;;;;;5085002;28;20496;-48
2022/08/25 03:06:14;;;;;;;7.23;4.20;;;21.40;59.10;;;;;;5088788;28;20447;-48
2022/08/25 03:08:42;;;;;;;4.10;3.70;;;21.40;59.40;;;;;;5083909;28;20476;-48
2022/08/25 03:11:09;;;;;;;5.03;3.63;;;21.40;59.60;;;;;;5067858;28;20507;-48
2022/08/25 03:13:37;;;;;;;3.83;3.53;;;21.40;59.40;;;;;;5071764;28;20452;-47
2022/08/25 03:16:05;;;;;;;4.47;4.07;;;21.40;59.40;;;;;;5068183;28;20464;-48
2022/08/25 03:18:39;;;;;;;4.03;3.63;;;21.40;59.40;;;;;;5087943;28;20994;-48
2022/08/25 03:21:10;;;;;;;5.83;3.80;;;21.40;59.70;;;;;;5089094;28;20468;-48
2022/08/25 03:23:37;;;;;;;4.53;3.80;;;21.40;59.90;;;;;;5066017;28;20457;-48
2022/08/25 03:28:50;;;;;;;4.83;3.90;;;21.30;60.20;;;;;;5083910;28;20468;-48
2022/08/25 03:31:17;;;;;;;4.93;3.60;;;21.30;60.50;;;;;;5064039;28;21332;-48
2022/08/25 03:33:44;;;;;;;3.87;3.57;;;21.20;60.80;;;;;;5087571;28;20987;-48
2022/08/25 03:36:11;;;;;;;5.70;4.40;;;21.20;60.90;;;;;;5086719;28;20460;-48
2022/08/25 03:38:38;;;;;;;5.93;4.10;;;21.10;61.30;;;;;;5069398;28;20469;-47
2022/08/25 03:41:13;;;;;;;6.10;3.80;;;21.10;61.50;;;;;;5085058;28;20459;-48
2022/08/25 03:43:41;;;;;;;5.37;4.40;;;21.10;61.50;;;;;;5067940;28;20901;-48
2022/08/25 03:46:07;;;;;;;6.17;4.83;;;21.10;61.60;;;;;;5085430;28;20457;-47
2022/08/25 03:48:34;;;;;;;5.67;4.10;;;21.10;61.90;;;;;;5066382;28;20452;-48
2022/08/25 03:51:01;;;;;;;4.17;3.80;;;21.10;61.80;;;;;;5077862;28;20468;-48
2022/08/25 03:53:28;;;;;;;5.10;4.00;;;21.10;61.70;;;;;;5083895;28;20457;-48
2022/08/25 03:55:54;;;;;;;3.90;3.47;;;21.20;61.50;;;;;;5066560;28;20454;-48
2022/08/25 03:58:21;;;;;;;4.50;4.10;;;21.10;61.60;;;;;;5066379;28;20523;-48
2022/08/25 04:00:48;;;;;;;5.03;4.10;;;21.10;61.70;;;;;;5085467;28;20819;-48
2022/08/25 04:03:16;;;;;;;6.30;3.87;;;21.10;61.80;;;;;;5066008;28;20465;-48
2022/08/25 04:05:42;;;;;;;4.83;4.27;;;21.10;61.80;;;;;;5084297;28;20465;-48
2022/08/25 04:08:10;;;;;;;5.80;4.90;;;21.10;62.10;;;;;;5081072;28;21204;-47
2022/08/25 04:10:37;;;;;;;5.57;4.03;;;21.10;62.10;;;;;;5070265;28;20486;-48
2022/08/25 04:13:04;;;;;;;7.13;4.33;;;21.00;62.50;;;;;;5084266;28;20520;-48
2022/08/25 04:15:31;;;;;;;4.67;4.27;;;21.00;62.70;;;;;;5088402;28;20823;-48
2022/08/25 04:17:57;;;;;;;4.83;4.37;;;21.00;62.70;;;;;;5067084;28;20455;-47
2022/08/25 04:20:25;;;;;;;7.50;5.17;;;21.00;62.90;;;;;;5083242;28;21543;-48
2022/08/25 04:22:52;;;;;;;6.23;4.47;;;21.00;62.90;;;;;;5082518;28;20479;-47
2022/08/25 04:25:19;;;;;;;6.30;4.73;;;21.00;63.00;;;;;;5083367;28;20464;-48
2022/08/25 04:27:45;;;;;;;4.80;4.30;;;20.90;63.40;;;;;;5083410;28;20953;-48
2022/08/25 04:30:13;;;;;;;4.63;3.90;;;20.90;63.70;;;;;;5077701;28;20460;-48
2022/08/25 04:32:40;;;;;;;5.97;4.00;;;20.80;63.90;;;;;;5083046;28;20488;-49
2022/08/25 04:35:08;;;;;;;6.80;5.10;;;20.80;64.10;;;;;;5086799;28;20460;-48
2022/08/25 04:37:34;;;;;;;7.03;5.93;;;20.80;64.10;;;;;;5070607;28;20441;-48
2022/08/25 04:40:02;;;;;;;8.20;5.03;;;20.80;64.10;;;;;;5069053;28;20899;-48
2022/08/25 04:42:28;;;;;;;6.73;5.07;;;20.80;64.30;;;;;;5086739;28;20949;-48
2022/08/25 04:44:55;;;;;;;5.40;4.63;;;20.90;64.40;;;;;;5048725;28;20458;-50
2022/08/25 04:47:22;;;;;;;7.43;4.67;;;20.90;64.40;;;;;;5085408;28;20453;-48
2022/08/25 04:49:49;;;;;;;4.80;4.37;;;20.90;64.30;;;;;;5084431;28;20838;-48
2022/08/25 04:52:16;;;;;;;5.60;3.70;;;20.90;64.70;;;;;;5063777;28;21011;-48
2022/08/25 04:54:43;;;;;;;7.13;5.20;;;20.80;64.90;;;;;;5084401;28;20463;-48
2022/08/25 04:57:10;;;;;;;8.03;5.00;;;20.80;65.10;;;;;;5083549;28;20480;-48
2022/08/25 04:59:37;;;;;;;6.67;4.80;;;20.80;65.10;;;;;;5070685;28;20454;-48
2022/08/25 05:02:05;;;;;;;8.37;5.10;;;20.80;65.10;;;;;;5066871;28;20472;-48
2022/08/25 05:04:34;;;;;;;5.60;4.60;;;20.80;65.40;;;;;;5086360;28;20496;-48
2022/08/25 05:07:02;;;;;;;8.67;5.17;;;20.80;65.40;;;;;;5087315;28;20468;-48
2022/08/25 05:09:29;;;;;;;6.23;4.77;;;20.80;65.20;;;;;;5052547;28;20464;-48
2022/08/25 05:12:02;;;;;;;5.70;4.17;;;20.90;65.10;;;;;;5063287;28;20905;-48
2022/08/25 05:14:30;;;;;;;5.60;5.10;;;20.90;65.20;;;;;;5084951;28;20811;-48
2022/08/25 05:16:57;;;;;;;10.93;5.00;;;20.90;65.40;;;;;;5083568;28;20453;-48
2022/08/25 05:19:25;;;;;;;9.00;4.60;;;20.90;65.40;;;;;;5065142;28;20475;-48
2022/08/25 05:21:52;;;;;;;6.73;5.10;;;20.90;65.60;;;;;;5079572;28;20464;-48
2022/08/25 05:24:20;;;;;;;6.90;5.00;;;21.00;65.40;;;;;;5082703;28;20453;-48
2022/08/25 05:26:47;;;;;;;7.50;4.73;;;21.00;65.20;;;;;;5085616;28;20909;-48
2022/08/25 05:29:14;;;;;;;5.40;4.60;;;21.00;65.20;;;;;;5075439;28;20463;-48
2022/08/25 05:31:42;;;;;;;9.00;4.80;;;21.10;65.40;;;;;;5072537;28;20488;-48
2022/08/25 05:34:17;;;;;;;10.90;5.10;;;21.10;65.20;;;;;;5059339;28;20458;-48
2022/08/25 05:36:44;;;;;;;10.30;5.27;;;21.20;65.10;;;;;;5084612;28;20499;-48
2022/08/25 05:39:11;;;;;;;5.67;5.17;;;21.30;65.10;;;;;;5066247;28;21025;-48
2022/08/25 05:41:38;;;;;;;5.80;5.20;;;21.30;65.20;;;;;;5081840;28;20478;-48
2022/08/25 05:44:05;;;;;;;9.07;5.97;;;21.30;65.30;;;;;;5086189;28;20850;-48
2022/08/25 05:46:32;;;;;;;5.30;4.73;;;21.30;65.30;;;;;;5066877;28;20464;-48
2022/08/25 05:48:58;;;;;;;5.63;5.13;;;21.40;65.40;;;;;;5086125;28;20452;-48
2022/08/25 05:51:25;;;;;;;7.90;5.80;;;21.50;65.40;;;;;;5086912;28;20971;-48
2022/08/25 05:53:52;;;;;;;5.80;5.20;;;21.50;65.60;;;;;;5066319;28;20988;-48
2022/08/25 05:56:20;;;;;;;7.93;5.47;;;21.60;65.80;;;;;;5065298;28;20457;-48
2022/08/25 05:58:46;;;;;;;6.17;5.27;;;21.60;66.00;;;;;;5084487;28;20479;-48
2022/08/25 06:04:21;;;;;;;6.97;5.67;;;21.80;66.10;;;;;;5086071;28;20460;-48
2022/08/25 06:06:49;;;;;;;6.37;5.33;;;21.90;66.30;;;;;;5088998;28;20474;-48
2022/08/25 06:09:16;;;;;;;8.77;5.10;;;21.90;66.00;;;;;;5087440;28;20505;-48
2022/08/25 06:11:43;;;;;;;7.47;6.03;;;22.00;65.90;;;;;;5086524;28;20460;-48
2022/08/25 06:14:10;;;;;;;8.70;6.20;;;22.10;66.00;;;;;;5074700;28;20488;-48
2022/08/25 06:16:38;;;;;;;7.43;5.30;;;22.20;66.20;;;;;;5088002;28;20736;-47
2022/08/25 06:19:06;;;;;;;7.63;6.53;;;22.20;66.10;;;;;;5086483;28;20924;-48
2022/08/25 06:21:33;;;;;;;7.27;6.50;;;22.30;66.00;;;;;;5062192;28;20446;-49
2022/08/25 06:24:00;;;;;;;7.67;6.90;;;22.40;65.90;;;;;;5083513;28;20436;-49
2022/08/25 06:26:27;;;;;;;10.70;7.10;;;22.40;65.90;;;;;;5086540;28;20445;-49
2022/08/25 06:28:54;;;;;;;8.80;7.30;;;22.50;65.80;;;;;;5079134;28;20803;-49
2022/08/25 06:31:21;;;;;;;8.40;7.47;;;22.70;65.70;;;;;;5066770;28;20456;-49
2022/08/25 06:33:48;;;;;;;10.00;6.63;;;22.70;65.60;;;;;;5086400;28;20491;-48
2022/08/25 06:36:16;;;;;;;7.60;5.73;;;22.80;65.40;;;;;;5086751;28;20676;-48
2022/08/25 06:38:42;;;;;;;7.83;6.80;;;22.90;65.20;;;;;;5065447;28;21002;-48
2022/08/25 06:41:09;;;;;;;6.90;6.30;;;23.00;65.00;;;;;;5074658;28;20445;-48
2022/08/25 06:43:36;;;;;;;7.40;6.30;;;23.10;65.00;;;;;;5063747;28;20467;-48
2022/08/25 06:46:15;;;;;;;12.57;7.50;;;23.20;65.00;;;;;;5080319;28;20464;-49
2022/08/25 06:48:42;;;;;;;10.27;7.50;;;23.30;64.80;;;;;;5079126;28;21000;-48
2022/08/25 06:51:12;;;;;;;8.50;7.63;;;23.40;64.60;;;;;;5047789;28;20967;-48
2022/08/25 06:53:40;;;;;;;7.83;6.80;;;23.30;65.00;;;;;;5086818;28;20589;-48
2022/08/25 06:56:08;;;;;;;9.77;7.80;;;23.40;64.90;;;;;;5083854;28;20922;-48
2022/08/25 06:58:35;;;;;;;8.10;6.67;;;23.50;64.60;;;;;;5068282;28;20669;-49
2022/08/25 07:01:22;;;;;;;9.97;7.63;;;23.50;64.50;;;;;;5088652;28;20452;-49
2022/08/25 07:03:56;;;;;;;11.00;7.27;;;23.70;64.30;;;;;;5071843;28;20452;-48
2022/08/25 07:06:24;;;;;;;7.77;6.97;;;23.70;64.20;;;;;;5086096;28;20525;-49
2022/08/25 07:08:51;;;;;;;7.90;6.40;;;23.70;64.10;;;;;;5073671;28;20450;-48
2022/08/25 07:11:20;;;;;;;7.90;7.20;;;23.80;64.00;;;;;;5089493;28;20456;-49
2022/08/25 07:13:47;;;;;;;7.43;6.60;;;23.90;63.70;;;;;;5072857;28;20486;-49
2022/08/25 07:16:15;;;;;;;10.70;7.77;;;24.00;63.40;;;;;;5085826;28;20470;-48
2022/08/25 07:18:42;;;;;;;11.47;7.30;;;24.10;63.20;;;;;;5067151;28;20456;-49
2022/08/25 07:21:11;;;;;;;8.00;6.70;;;24.20;63.00;;;;;;5089499;28;20459;-49
2022/08/25 07:23:38;;;;;;;7.00;6.30;;;24.20;62.80;;;;;;5090449;28;20505;-49
2022/08/25 07:26:35;;;;;;;8.33;7.17;;;24.30;62.40;;;;;;5087520;28;20471;-48
2022/08/25 07:29:12;;;;;;;7.43;6.33;;;24.50;62.20;;;;;;5089096;28;20551;-48
2022/08/25 07:31:40;;;;;;;7.97;6.60;;;24.60;62.10;;;;;;5069015;28;20965;-49
2022/08/25 07:36:55;;;;;;;8.63;7.73;;;24.70;61.80;;;;;;5090329;28;20448;-49
2022/08/25 07:39:23;;;;;;;7.40;6.70;;;24.80;61.60;;;;;;5072026;28;20456;-49
2022/08/25 07:41:50;;;;;;;9.40;7.17;;;24.90;61.60;;;;;;5085688;28;20452;-49
2022/08/25 07:44:20;;;;;;;7.83;6.93;;;24.80;61.80;;;;;;5070328;28;20461;-48
2022/08/25 07:46:47;;;;;;;13.40;7.30;;;24.90;61.70;;;;;;5072361;28;20463;-49
2022/08/25 07:49:16;;;;;;;10.40;7.90;;;25.00;61.60;;;;;;5091841;28;20519;-49
2022/08/25 07:51:49;;;;;;;8.13;6.97;;;25.10;61.20;;;;;;5074443;28;20509;-49
2022/08/25 07:54:30;;;;;;;10.10;7.60;;;25.20;60.80;;;;;;5087942;28;20779;-49
2022/08/25 07:57:04;;;;;;;8.60;7.67;;;25.30;60.80;;;;;;5072624;28;20483;-49
2022/08/25 07:59:31;;;;;;;7.70;6.90;;;25.30;60.60;;;;;;5090255;28;20471;-49
2022/08/25 08:02:11;;;;;;;9.97;7.40;;;25.50;60.40;;;;;;5073597;28;20468;-49
2022/08/25 08:04:47;;;;;;;7.57;6.87;;;25.50;60.20;;;;;;5075832;28;20544;-49
2022/08/25 08:07:22;;;;;;;7.30;6.60;;;25.70;59.80;;;;;;5088833;28;20968;-49
2022/08/25 08:09:52;;;;;;;7.83;7.03;;;25.80;59.60;;;;;;5089097;28;20810;-49
2022/08/25 08:12:39;;;;;;;9.40;6.57;;;25.90;59.40;;;;;;5091579;28;20476;-49
2022/08/25 08:15:06;;;;;;;8.77;7.83;;;26.00;59.00;;;;;;5071972;28;20449;-49
2022/08/25 08:17:38;;;;;;;8.93;6.93;;;26.10;58.50;;;;;;5071752;28;20905;-49
2022/08/25 08:20:07;;;;;;;7.80;6.70;;;26.20;58.30;;;;;;5073029;28;20929;-49
2022/08/25 08:22:37;;;;;;;9.20;7.83;;;26.40;58.00;;;;;;5072532;28;20463;-49
2022/08/25 08:25:05;;;;;;;7.80;7.10;;;26.50;57.70;;;;;;5070750;28;20492;-49
2022/08/25 08:27:36;;;;;;;7.63;6.90;;;26.60;57.50;;;;;;5075381;28;21038;-49
2022/08/25 08:30:04;;;;;;;8.27;7.10;;;26.70;57.30;;;;;;5069961;28;20849;-49
2022/08/25 08:32:31;;;;;;;7.90;6.93;;;26.80;56.70;;;;;;5071815;28;20503;-49
2022/08/25 08:35:17;;;;;;;7.83;6.90;;;26.90;56.50;;;;;;5090912;28;20456;-49
2022/08/25 08:37:45;;;;;;;7.77;7.07;;;27.00;56.30;;;;;;5069830;28;20467;-49
2022/08/25 08:40:14;;;;;;;9.00;6.77;;;27.10;55.60;;;;;;5071288;28;20492;-49
2022/08/25 08:42:51;;;;;;;10.20;7.67;;;27.20;55.30;;;;;;5072766;28;20468;-49
2022/08/25 08:45:33;;;;;;;7.60;6.77;;;27.30;54.90;;;;;;5072895;28;20464;-49
2022/08/25 08:48:24;;;;;;;7.47;6.43;;;27.30;54.40;;;;;;5089823;28;20466;-49
2022/08/25 08:50:59;;;;;;;7.00;6.30;;;27.40;54.50;;;;;;5075505;28;20479;-49
2022/08/25 08:53:47;;;;;;;8.07;6.50;;;27.50;54.20;;;;;;5050054;28;20489;-49
2022/08/25 08:56:22;;;;;;;7.07;6.10;;;27.60;53.90;;;;;;5086099;28;20456;-48
2022/08/25 08:58:54;;;;;;;7.50;6.70;;;27.60;53.60;;;;;;5090765;28;20450;-49
2022/08/25 09:01:26;;;;;;;7.87;6.80;;;27.70;53.40;;;;;;5085281;28;20463;-49
2022/08/25 09:04:01;;;;;;;7.90;7.10;;;27.80;53.30;;;;;;5064239;28;20245;-49
2022/08/25 09:06:37;;;;;;;11.00;8.10;;;27.90;53.20;;;;;;5069800;28;20263;-48
2022/08/25 09:09:05;;;;;;;10.40;7.70;;;28.00;53.20;;;;;;5070705;28;20531;-49
2022/08/25 09:11:59;;;;;;;7.73;7.03;;;28.10;53.10;;;;;;5086807;28;20472;-48
2022/08/25 09:14:55;;;;;;;9.10;7.43;;;28.20;52.90;;;;;;5093393;28;20236;-49
2022/08/25 09:17:48;;;;;;;7.80;6.80;;;28.30;52.70;;;;;;5089438;28;20213;-49
2022/08/25 09:20:38;;;;;;;9.03;6.80;;;28.40;52.40;;;;;;5040921;28;20667;-49
2022/08/25 09:23:14;;;;;;;8.83;6.93;;;28.40;51.60;;;;;;5088945;28;20209;-49
2022/08/25 09:26:07;;;;;;;7.53;6.60;;;28.40;51.40;;;;;;5074047;28;20451;-49
2022/08/25 09:28:50;;;;;;;8.67;6.83;;;28.30;51.50;;;;;;5088137;28;20283;-49
2022/08/25 09:31:24;;;;;;;8.97;8.00;;;28.40;51.80;;;;;;5088809;28;20198;-49
2022/08/25 09:33:58;;;;;;;8.77;7.20;;;28.40;51.30;;;;;;5085586;28;20250;-49
2022/08/25 09:36:25;;;;;;;8.23;7.17;;;28.40;51.00;;;;;;5084691;28;20199;-49
2022/08/25 09:38:53;;;;;;;7.37;6.63;;;28.30;51.20;;;;;;5061350;28;20206;-49
2022/08/25 09:41:42;;;;;;;8.17;7.37;;;28.50;51.20;;;;;;5092314;28;20209;-49
2022/08/25 09:44:18;;;;;;;7.90;7.10;;;28.60;51.10;;;;;;5065264;28;20519;-49
2022/08/25 09:47:04;;;;;;;9.90;7.50;;;28.60;50.80;;;;;;5089885;28;20221;-49
2022/08/25 09:49:40;;;;;;;7.47;6.67;;;28.70;50.50;;;;;;5089262;28;20210;-49
2022/08/25 09:52:21;;;;;;;9.73;7.30;;;28.80;50.60;;;;;;5090503;28;20584;-49
2022/08/25 09:54:53;;;;;;;7.70;7.00;;;28.80;50.10;;;;;;5088767;28;20655;-49
2022/08/25 09:57:32;;;;;;;8.27;7.07;;;28.90;50.10;;;;;;5091470;28;20536;-49
2022/08/25 10:00:17;;;;;;;7.50;6.80;;;29.10;49.80;;;;;;5090391;28;20202;-49
2022/08/25 10:02:59;;;;;;;7.27;6.60;;;29.20;49.10;;;;;;5086996;28;20772;-49
2022/08/25 10:05:34;;;;;;;8.00;7.30;;;29.40;49.20;;;;;;5068760;28;20656;-49
2022/08/25 10:08:09;;;;;;;8.30;7.47;;;29.40;48.20;;;;;;5066476;28;20291;-49
2022/08/25 10:10:44;;;;;;;8.37;6.40;;;29.50;48.50;;;;;;5090046;28;20213;-49
2022/08/25 10:13:14;;;;;;;8.20;6.13;;;29.50;47.40;;;;;;5089715;28;20607;-49
2022/08/25 10:16:22;;;;;;;7.20;6.10;;;29.70;47.20;;;;;;5091218;28;20205;-49
2022/08/25 10:19:13;;;;;;;6.80;5.95;;;29.90;47.10;;;;;;5089895;28;20675;-49
2022/08/25 10:21:42;;;;;;;5.93;5.32;;;30.10;46.60;;;;;;5089580;28;20208;-49
2022/08/25 10:24:18;;;;;;;11.68;6.28;;;30.20;46.40;;;;;;5089145;28;20270;-49
2022/08/25 10:27:05;;;;;;;7.10;5.57;;;30.20;46.20;;;;;;5064035;28;20304;-49
2022/08/25 10:29:37;;;;;;;9.02;6.45;;;30.30;46.40;;;;;;5060320;28;20436;-49
2022/08/25 10:32:06;;;;;;;5.35;4.85;;;30.30;46.10;;;;;;5089553;28;20612;-49
2022/08/25 10:34:48;;;;;;;6.78;6.18;;;30.20;46.20;;;;;;5087760;28;20279;-49
2022/08/25 10:37:40;;;;;;;6.57;5.97;;;30.30;46.30;;;;;;5083484;28;20651;-49
2022/08/25 10:40:14;;;;;;;6.63;6.03;;;30.00;46.20;;;;;;5088440;28;20202;-49
2022/08/25 10:43:06;;;;;;;7.60;6.82;;;30.00;46.30;;;;;;5082072;28;20876;-49
2022/08/25 10:46:07;;;;;;;7.03;6.25;;;30.10;46.60;;;;;;5068594;28;20629;-49
2022/08/25 10:49:02;;;;;;;5.90;5.35;;;30.10;45.80;;;;;;5090266;28;20201;-49
2022/08/25 10:51:44;;;;;;;5.90;5.32;;;30.00;46.00;;;;;;5087973;28;20688;-49
2022/08/25 10:54:48;;;;;;;7.45;5.38;;;30.10;46.20;;;;;;5083611;28;20232;-49
2022/08/25 10:57:22;;;;;;;5.90;5.20;;;30.40;45.90;;;;;;5068823;28;20222;-49
2022/08/25 11:00:11;;;;;;;6.32;5.25;;;30.40;45.10;;;;;;5083919;28;20331;-50
2022/08/25 11:02:59;;;;;;;6.10;5.55;;;30.10;45.00;;;;;;5050600;28;20212;-49
2022/08/25 11:05:31;;;;;;;6.70;5.87;;;29.90;45.50;;;;;;5084455;28;20318;-49
2022/08/25 11:08:13;;;;;;;6.55;5.65;;;29.90;45.90;;;;;;5071673;28;20202;-49
2022/08/25 11:10:57;;;;;;;5.10;4.63;;;29.80;46.10;;;;;;5082417;28;20213;-51
2022/08/25 11:13:46;;;;;;;5.50;4.82;;;29.80;46.50;;;;;;5068472;28;20234;-49
2022/08/25 11:16:14;;;;;;;6.93;6.23;;;29.80;46.30;;;;;;5074678;28;20209;-50
2022/08/25 11:19:09;;;;;;;10.57;5.13;;;29.80;46.50;;;;;;5064930;28;20315;-49
2022/08/25 11:21:41;;;;;;;6.53;5.78;;;29.60;45.90;;;;;;5082380;28;20213;-49
2022/08/25 11:24:39;;;;;;;5.50;5.00;;;29.60;45.60;;;;;;5061888;28;20576;-49
2022/08/25 11:27:19;;;;;;;6.00;5.40;;;29.40;45.60;;;;;;5074591;28;20215;-49
2022/08/25 11:30:02;;;;;;;6.13;5.60;;;29.40;46.30;;;;;;5087009;28;20232;-49
2022/08/25 11:32:34;;;;;;;6.10;5.60;;;29.40;46.30;;;;;;5075654;28;20210;-49
2022/08/25 11:35:05;;;;;;;6.20;5.53;;;29.40;46.40;;;;;;5065698;28;20705;-50
2022/08/25 11:37:33;;;;;;;6.50;5.90;;;29.40;46.50;;;;;;5084113;28;20193;-50
2022/08/25 11:40:09;;;;;;;6.43;5.80;;;29.40;47.00;;;;;;5069446;28;20213;-50
2022/08/25 11:42:42;;;;;;;6.43;5.88;;;29.40;47.20;;;;;;5090185;28;20469;-50
2022/08/25 11:45:25;;;;;;;8.02;6.80;;;29.40;46.70;;;;;;5084002;28;20263;-50
2022/08/25 11:48:11;;;;;;;5.65;5.15;;;29.40;47.00;;;;;;5065036;28;20210;-50
2022/08/25 11:51:00;;;;;;;6.30;5.70;;;29.30;47.30;;;;;;5087433;28;20655;-50
2022/08/25 11:53:33;;;;;;;6.80;6.20;;;29.30;47.00;;;;;;5079392;28;20276;-50
2022/08/25 11:56:30;;;;;;;6.70;6.00;;;29.30;47.20;;;;;;5068766;28;20213;-50
2022/08/25 11:58:58;;;;;;;6.47;5.87;;;29.20;46.70;;;;;;5066053;28;20201;-49
2022/08/25 12:01:42;;;;;;;6.93;6.27;;;29.20;47.00;;;;;;5077062;28;20202;-50
2022/08/25 12:04:16;;;;;;;47.63;12.27;;;29.20;47.20;;;;;;5080708;28;20210;-50
2022/08/25 12:07:04;;;;;;;12.93;7.23;;;29.20;47.10;;;;;;5080768;28;20249;-50
2022/08/25 12:09:33;;;;;;;8.80;6.83;;;29.20;47.40;;;;;;5087556;28;20214;-50
2022/08/25 12:12:26;;;;;;;8.40;6.70;;;29.10;47.30;;;;;;5086666;28;20304;-50
2022/08/25 12:14:52;;;;;;;6.97;6.23;;;29.20;47.40;;;;;;5086743;28;20737;-50
2022/08/25 12:17:24;;;;;;;6.20;5.60;;;29.10;47.20;;;;;;5085039;28;20202;-50
2022/08/25 12:19:57;;;;;;;6.57;5.80;;;29.10;47.40;;;;;;5085850;28;20206;-50
2022/08/25 12:22:25;;;;;;;8.37;6.53;;;29.20;47.40;;;;;;5082241;28;20218;-50
2022/08/25 12:25:28;;;;;;;7.03;6.40;;;29.10;47.40;;;;;;5069234;28;20202;-50
2022/08/25 12:27:59;;;;;;;7.50;6.20;;;29.20;47.60;;;;;;5067459;28;20295;-50
2022/08/25 12:30:48;;;;;;;7.53;6.23;;;29.20;47.70;;;;;;5079303;28;20360;-49
2022/08/25 12:33:24;;;;;;;6.13;5.47;;;29.20;47.40;;;;;;5087512;28;20233;-50
2022/08/25 12:36:00;;;;;;;6.80;6.10;;;29.10;47.20;;;;;;5087796;28;20236;-48
2022/08/25 12:38:36;;;;;;;6.87;6.17;;;29.10;47.10;;;;;;5081870;28;20198;-47
2022/08/25 12:41:31;;;;;;;8.23;6.77;;;29.10;47.10;;;;;;5088142;28;20206;-48
2022/08/25 12:44:33;;;;;;;8.00;6.07;;;29.10;47.20;;;;;;5070504;28;20220;-48
2022/08/25 12:47:18;;;;;;;6.93;6.20;;;29.10;47.30;;;;;;5086264;28;20206;-47
2022/08/25 12:49:49;;;;;;;6.17;5.60;;;29.00;47.30;;;;;;5088915;28;20210;-48
2022/08/25 12:52:20;;;;;;;6.40;5.80;;;29.10;47.40;;;;;;5086128;28;20806;-48
2022/08/25 12:54:57;;;;;;;6.88;6.30;;;29.10;47.20;;;;;;5075171;28;20275;-48
2022/08/25 12:57:39;;;;;;;6.30;5.70;;;29.20;47.30;;;;;;5085194;28;20253;-47
2022/08/25 13:00:45;;;;;;;6.33;5.67;;;29.10;47.10;;;;;;5083358;28;20684;-48
2022/08/25 13:03:25;;;;;;;7.20;6.60;;;29.20;47.20;;;;;;5088529;28;20202;-47
2022/08/25 13:06:20;;;;;;;6.80;6.27;;;29.20;47.20;;;;;;5086466;28;20206;-48
2022/08/25 13:08:55;;;;;;;6.77;6.17;;;29.20;47.30;;;;;;5068983;28;20205;-47
2022/08/25 13:11:34;;;;;;;6.30;5.72;;;29.20;47.40;;;;;;5067187;28;20210;-48
2022/08/25 13:14:16;;;;;;;7.00;5.77;;;29.20;47.40;;;;;;5087550;28;20762;-48
2022/08/25 13:16:54;;;;;;;8.10;7.07;;;29.20;47.10;;;;;;5086444;28;20202;-48
2022/08/25 13:19:24;;;;;;;8.33;6.20;;;29.20;47.30;;;;;;5067439;28;20209;-49
2022/08/25 13:21:52;;;;;;;10.67;6.80;;;29.20;47.00;;;;;;5084178;28;20214;-49
2022/08/25 13:24:33;;;;;;;7.00;6.37;;;29.30;46.90;;;;;;5086779;28;20210;-49
2022/08/25 13:27:16;;;;;;;6.20;5.60;;;29.40;46.90;;;;;;5083959;28;20236;-49